Grampian Pride — GDDK — position and weather

sailwx.info

Track history (hours):
 
Tides and Currents Weather Stations Pressure Air Temp Water Temp Dewpoint Dewpoint Depression Visibility Wind Speed Wind Dir Waves Ship Positions

Grampian Pride

Last reported at 2014-Nov-09 20:33 UTC. Time now 2014-Nov-24 14:07 UTC.
Position N 57°36' W 001°12'.
Warning: this ship's position is 14 days out of date.

Length 42 m; draft 4.8 m.

Type: SAR. MMSI: 232843000.

Date/timePositionNaut miles runAvg speedWind from/ knotsBaromVisibWave heightAir tempDewpointWater temp
2014-Nov-09 20:33N 57°36' W 001°12'9 8.6
2014-Nov-09 19:31N 57°29' W 001°23'9 9.2
2014-Nov-09 18:33N 57°22' W 001°34'10 6.7
2014-Nov-09 17:03N 57°18' W 001°50'12 8.0
2014-Nov-09 15:33N 57°09' W 002°05'0 0.4
2014-Nov-09 14:33N 57°09' W 002°05'0 0.0
2014-Nov-09 13:33N 57°09' W 002°05'0 0.4
2014-Nov-09 12:33N 57°09' W 002°05'0 0.0
2014-Nov-09 08:08N 57°08' W 002°05'0 0.0
2014-Nov-09 07:33N 57°08' W 002°05'1 0.6
2014-Nov-09 06:33N 57°09' W 002°03'16 2.7
2014-Nov-09 00:33N 57°11' W 001°34'6 6.4
2014-Nov-08 23:33N 57°17' W 001°35'6 5.9
2014-Nov-08 22:33N 57°23' W 001°36'5 5.3
2014-Nov-08 21:33N 57°28' W 001°37'5 4.6
2014-Nov-08 20:33N 57°33' W 001°37'4 3.9
2014-Nov-08 19:33N 57°37' W 001°34'4 4.3
2014-Nov-08 18:33N 57°41' W 001°32'4 4.2
2014-Nov-08 17:33N 57°44' W 001°28'5 3.5
2014-Nov-08 16:04N 57°49' W 001°23'  
2014-Nov-01 02:33N 57°42' W 001°33'8 8.1
2014-Nov-01 01:32N 57°34' W 001°34'8 8.5
2014-Nov-01 00:33N 57°26' W 001°39'9 8.8
2014-Oct-31 23:33N 57°19' W 001°49'  
Track history (hours):
 
Tides and Currents Weather Stations Pressure Air Temp Water Temp Dewpoint Dewpoint Depression Visibility Wind Speed Wind Dir Waves Ship Positions

Grampian Pride

Last reported at 2014-Nov-09 20:33 UTC. Time now 2014-Nov-24 14:07 UTC.
Position N 57°36' W 001°12'.
Warning: this ship's position is 14 days out of date.

Length 42 m; draft 4.8 m.

Type: SAR. MMSI: 232843000.

Date/timePositionNaut miles runAvg speedWind from/ knotsBaromVisibWave heightAir tempDewpointWater temp
2014-Nov-09 20:33N 57°36' W 001°12'9 8.6
2014-Nov-09 19:31N 57°29' W 001°23'9 9.2
2014-Nov-09 18:33N 57°22' W 001°34'10 6.7
2014-Nov-09 17:03N 57°18' W 001°50'12 8.0
2014-Nov-09 15:33N 57°09' W 002°05'0 0.4
2014-Nov-09 14:33N 57°09' W 002°05'0 0.0
2014-Nov-09 13:33N 57°09' W 002°05'0 0.4
2014-Nov-09 12:33N 57°09' W 002°05'0 0.0
2014-Nov-09 08:08N 57°08' W 002°05'0 0.0
2014-Nov-09 07:33N 57°08' W 002°05'1 0.6
2014-Nov-09 06:33N 57°09' W 002°03'16 2.7
2014-Nov-09 00:33N 57°11' W 001°34'6 6.4
2014-Nov-08 23:33N 57°17' W 001°35'6 5.9
2014-Nov-08 22:33N 57°23' W 001°36'5 5.3
2014-Nov-08 21:33N 57°28' W 001°37'5 4.6
2014-Nov-08 20:33N 57°33' W 001°37'4 3.9
2014-Nov-08 19:33N 57°37' W 001°34'4 4.3
2014-Nov-08 18:33N 57°41' W 001°32'4 4.2
2014-Nov-08 17:33N 57°44' W 001°28'5 3.5
2014-Nov-08 16:04N 57°49' W 001°23'  
2014-Nov-01 02:33N 57°42' W 001°33'8 8.1
2014-Nov-01 01:32N 57°34' W 001°34'8 8.5
2014-Nov-01 00:33N 57°26' W 001°39'9 8.8
2014-Oct-31 23:33N 57°19' W 001°49'  

Dump ship's entire track history